Redwood Falls Municipal Airport Redwood Falls US
ICAO: KRWF
IATA: RWF
Category: Medium
Scheduled Services: No

Elevation: 1024 ft
TransAlt. 18000 ft.

Airport Communications:
ASOS:126.575
MINNEAPOLIS CNTR:127.1
PRINCETON RDO:122.4
CTAF/UNICOM:123

KRWF Zoom In..

If you have problems with the map follow the link
https://www.worldairports.se/pages/airport.php?
ICAO=KRWF

Runways:

(A) RW 05 length 2081 ft width 200 ft
---- / hdg 50

(B) RW 12 length 4001 ft width 100 ft
---- / hdg 124

(C) RW 23 length 2081 ft width 200 ft
---- / hdg 230

(D) RW 30 length 4001 ft width 100 ft
---- / hdg 304

Location; KRWF
Day. 14 / Time. 17.33 Zulu
* Altimeter: 30.00
* Temperature: -16° c. -3.2°f.
* Wind from: 310° Speed 14 kn with Gusts up to 21 kn.
Dewpoint: -20° c.
Visibility: 10 Statute Miles.
Clouds: Broken 800 ft.

KRWF 141733Z AUTO 31014G21KT 10SM BKN008 M16/M20 A3000 RMK AO2 T11561200 $


Wind From 310°
Speed 14 kn.

 
 
jpsmedia worldairports.se 2019   terms of use